Time;durP1;ratioP1;P1;durP2;ratioP2;P2;SDS_P1;SDS_P2;PMS_P1;PMS_P2;Temp;Humidity;BMP_temperature;BMP_pressure;BME280_temperature;BME280_humidity;BME280_pressure;Samples;Min_cycle;Max_cycle;Signal;HPM_P1;HPM_P2
2023/07/08 00:00:00;;;;;;;4.65;3.63;;;16.80;99.90;;;;;;2585412;54;20991;31
2023/07/08 00:02:44;;;;;;;6.40;4.37;;;16.70;99.90;;;;;;2585246;54;20045;31
2023/07/08 00:05:19;;;;;;;10.50;4.00;;;16.70;99.90;;;;;;2585269;54;20784;31
2023/07/08 00:07:53;;;;;;;6.57;4.28;;;16.70;99.90;;;;;;2596194;46;20286;31
2023/07/08 00:10:27;;;;;;;8.27;4.00;;;16.60;99.90;;;;;;2585514;54;22463;31
2023/07/08 00:13:03;;;;;;;4.77;3.67;;;16.50;99.90;;;;;;2585127;54;20381;31
2023/07/08 00:15:36;;;;;;;5.75;3.80;;;16.50;99.90;;;;;;2585251;54;20242;31
2023/07/08 00:18:12;;;;;;;6.87;4.83;;;16.50;99.90;;;;;;2585361;54;20811;31
2023/07/08 00:20:48;;;;;;;6.70;4.57;;;16.50;99.90;;;;;;2585484;54;20026;31
2023/07/08 00:23:21;;;;;;;5.73;4.53;;;16.40;99.90;;;;;;2585467;54;20928;31
2023/07/08 00:25:55;;;;;;;5.38;3.75;;;16.30;99.90;;;;;;2585302;54;20116;31
2023/07/08 00:28:33;;;;;;;6.60;4.35;;;16.30;99.90;;;;;;2585530;54;20027;31
2023/07/08 00:31:11;;;;;;;6.35;4.45;;;16.20;99.90;;;;;;2683319;39;22478;31
2023/07/08 00:33:47;;;;;;;5.43;3.40;;;16.10;99.90;;;;;;2585390;54;20056;31
2023/07/08 00:36:20;;;;;;;7.27;4.17;;;16.10;99.90;;;;;;2586026;54;21028;31
2023/07/08 00:38:53;;;;;;;7.88;4.90;;;16.10;99.90;;;;;;2585864;54;20968;31
2023/07/08 00:41:28;;;;;;;6.72;4.72;;;16.10;99.90;;;;;;2585808;54;20967;31
2023/07/08 00:44:04;;;;;;;7.43;4.53;;;16.10;99.90;;;;;;2604148;46;20030;31
2023/07/08 00:46:40;;;;;;;7.30;4.50;;;16.00;99.90;;;;;;2585570;54;20034;31
2023/07/08 00:49:31;;;;;;;7.05;4.82;;;16.00;99.90;;;;;;2604604;46;21093;31
2023/07/08 00:52:23;;;;;;;5.95;4.20;;;16.00;99.90;;;;;;2604036;46;20033;31
2023/07/08 00:54:58;;;;;;;6.23;4.00;;;16.00;99.90;;;;;;2604282;46;20030;31
2023/07/08 00:57:34;;;;;;;6.47;4.77;;;16.00;99.90;;;;;;2586035;54;20034;31
2023/07/08 01:00:17;;;;;;;5.73;4.90;;;15.90;99.90;;;;;;2585996;54;21018;31
2023/07/08 01:02:52;;;;;;;6.15;4.93;;;15.90;99.90;;;;;;2604015;46;20842;31
2023/07/08 01:05:28;;;;;;;8.73;4.30;;;15.80;99.90;;;;;;2585888;54;20034;31
2023/07/08 01:08:05;;;;;;;5.28;4.53;;;15.80;99.90;;;;;;2586063;54;21009;31
2023/07/08 01:10:39;;;;;;;7.95;5.50;;;15.70;99.90;;;;;;2604472;46;20867;31
2023/07/08 01:13:15;;;;;;;5.80;4.70;;;15.70;99.90;;;;;;2585924;54;20922;31
2023/07/08 01:15:52;;;;;;;7.50;4.70;;;15.70;99.90;;;;;;2604058;46;20030;31
2023/07/08 01:18:34;;;;;;;5.45;4.20;;;15.70;99.90;;;;;;2585995;54;21292;31
2023/07/08 01:21:07;;;;;;;7.03;5.10;;;15.70;99.90;;;;;;2586147;54;19934;31
2023/07/08 01:23:43;;;;;;;7.50;4.60;;;15.60;99.90;;;;;;2684091;39;22465;31
2023/07/08 01:26:20;;;;;;;9.35;5.80;;;15.60;99.90;;;;;;2585922;54;20026;31
2023/07/08 01:28:55;;;;;;;6.50;4.70;;;15.60;99.90;;;;;;2585998;54;20922;31
2023/07/08 01:31:28;;;;;;;7.78;6.30;;;15.50;99.90;;;;;;2585871;54;21132;31
2023/07/08 01:34:01;;;;;;;6.65;5.60;;;15.40;99.90;;;;;;2683905;39;22501;31
2023/07/08 01:36:39;;;;;;;9.45;6.38;;;15.40;99.90;;;;;;2585618;54;20027;31
2023/07/08 01:39:19;;;;;;;11.30;7.00;;;15.40;99.90;;;;;;2585794;54;20879;31
2023/07/08 01:41:53;;;;;;;6.85;6.15;;;15.30;99.90;;;;;;2604194;46;21135;31
2023/07/08 01:44:29;;;;;;;9.45;6.60;;;15.30;99.90;;;;;;2603820;46;20037;31
2023/07/08 01:47:06;;;;;;;7.73;5.80;;;15.30;99.90;;;;;;2585389;54;21810;31
2023/07/08 01:49:41;;;;;;;8.90;6.63;;;15.30;99.90;;;;;;2604255;46;19944;31
2023/07/08 01:52:15;;;;;;;10.87;7.13;;;15.20;99.90;;;;;;2585566;54;20108;31
2023/07/08 01:54:57;;;;;;;9.70;6.15;;;15.20;99.90;;;;;;2585631;54;21089;31
2023/07/08 01:57:31;;;;;;;12.65;6.90;;;15.20;99.90;;;;;;2585675;54;20955;31
2023/07/08 02:00:06;;;;;;;12.10;6.93;;;15.20;99.90;;;;;;2683661;39;21150;31
2023/07/08 02:02:45;;;;;;;10.05;6.95;;;15.20;99.90;;;;;;2585894;54;22388;31
2023/07/08 02:05:20;;;;;;;9.05;6.65;;;15.10;99.90;;;;;;2683770;39;21044;31
2023/07/08 02:07:55;;;;;;;8.13;7.27;;;15.10;99.90;;;;;;2585905;54;20031;31
2023/07/08 02:10:31;;;;;;;11.97;7.80;;;15.10;99.90;;;;;;2585264;54;20962;31
2023/07/08 02:13:07;;;;;;;8.20;7.30;;;15.00;99.90;;;;;;2683348;39;21955;31
2023/07/08 02:15:41;;;;;;;9.68;7.50;;;15.00;99.90;;;;;;2683765;39;22278;31
2023/07/08 02:18:15;;;;;;;13.60;7.70;;;15.00;99.90;;;;;;2585678;54;20037;31
2023/07/08 02:20:49;;;;;;;9.68;7.30;;;14.90;99.90;;;;;;2683913;39;21050;31
2023/07/08 02:23:22;;;;;;;12.33;9.00;;;14.90;99.90;;;;;;2585565;54;20034;31
2023/07/08 02:26:00;;;;;;;8.17;6.97;;;14.90;99.90;;;;;;2585530;54;20112;31
2023/07/08 02:28:34;;;;;;;9.52;8.38;;;14.90;99.90;;;;;;2585568;54;20878;31
2023/07/08 02:31:09;;;;;;;12.55;7.60;;;14.90;99.90;;;;;;2585821;54;20033;31
2023/07/08 02:33:42;;;;;;;10.75;7.93;;;14.90;99.90;;;;;;2585349;54;20108;31
2023/07/08 02:36:18;;;;;;;13.90;7.70;;;14.90;99.90;;;;;;2683529;39;21577;31
2023/07/08 02:38:53;;;;;;;9.55;7.28;;;14.90;99.90;;;;;;2603818;46;20823;31
2023/07/08 02:41:33;;;;;;;9.50;7.70;;;14.90;99.90;;;;;;2604165;46;20977;31
2023/07/08 02:44:06;;;;;;;12.48;7.30;;;14.80;99.90;;;;;;2603716;46;20284;31
2023/07/08 02:46:39;;;;;;;11.93;9.10;;;14.80;99.90;;;;;;2585340;54;20917;31
2023/07/08 02:49:14;;;;;;;10.70;8.93;;;14.80;99.90;;;;;;2585732;54;21495;31
2023/07/08 02:51:48;;;;;;;12.65;8.90;;;14.80;99.90;;;;;;2585981;54;20810;31
2023/07/08 02:54:21;;;;;;;8.95;7.85;;;14.70;99.90;;;;;;2585395;54;20979;31
2023/07/08 02:57:00;;;;;;;11.27;7.60;;;14.70;99.90;;;;;;2585663;54;22450;31
2023/07/08 02:59:38;;;;;;;12.15;7.85;;;14.70;99.90;;;;;;2604038;46;21094;31
2023/07/08 03:02:19;;;;;;;10.15;8.32;;;14.70;99.90;;;;;;2761276;31;20537;31
2023/07/08 03:04:54;;;;;;;10.40;8.30;;;14.60;99.90;;;;;;2585565;54;20833;31
2023/07/08 03:07:34;;;;;;;15.25;8.75;;;14.70;99.90;;;;;;2604199;46;20989;31
2023/07/08 03:10:12;;;;;;;12.55;6.85;;;14.70;99.90;;;;;;2585447;54;20061;31
2023/07/08 03:12:46;;;;;;;11.03;7.03;;;14.60;99.90;;;;;;2585629;54;20806;31
2023/07/08 03:15:26;;;;;;;10.45;8.57;;;14.60;99.90;;;;;;2585322;54;20059;31
2023/07/08 03:18:00;;;;;;;10.43;6.75;;;14.60;99.90;;;;;;2603657;46;20847;31
2023/07/08 03:20:36;;;;;;;8.48;6.97;;;14.70;99.90;;;;;;2585410;54;20974;31
2023/07/08 03:23:13;;;;;;;12.70;8.20;;;14.60;99.90;;;;;;2585605;54;20165;31
2023/07/08 03:25:49;;;;;;;10.05;7.07;;;14.70;99.90;;;;;;2584617;54;20930;31
2023/07/08 03:28:25;;;;;;;7.45;6.45;;;14.70;99.90;;;;;;2584340;54;20073;31
2023/07/08 03:31:05;;;;;;;7.80;7.00;;;14.70;99.90;;;;;;2585453;54;20033;31
2023/07/08 03:33:45;;;;;;;11.73;7.50;;;14.80;99.90;;;;;;2585558;54;20285;31
2023/07/08 03:36:27;;;;;;;8.65;7.32;;;14.90;99.90;;;;;;2585291;54;20269;31
2023/07/08 03:39:02;;;;;;;8.00;6.47;;;15.00;99.90;;;;;;2585415;54;20081;31
2023/07/08 03:41:36;;;;;;;10.50;7.80;;;15.10;99.90;;;;;;2683299;39;21013;31
2023/07/08 03:44:15;;;;;;;9.35;6.75;;;15.30;99.90;;;;;;2585321;54;20101;31
2023/07/08 03:46:49;;;;;;;10.70;7.28;;;15.40;99.90;;;;;;2585284;54;21522;31
2023/07/08 03:49:29;;;;;;;10.52;7.40;;;15.60;99.90;;;;;;2585695;54;19935;31
2023/07/08 03:52:04;;;;;;;8.20;5.78;;;15.80;99.90;;;;;;2603593;46;19938;31
2023/07/08 03:54:39;;;;;;;8.37;6.97;;;16.00;99.90;;;;;;2584532;54;20035;31
2023/07/08 03:57:14;;;;;;;8.00;7.10;;;16.10;99.90;;;;;;2585438;54;20105;31
2023/07/08 03:59:52;;;;;;;10.45;7.35;;;16.30;99.90;;;;;;2585502;54;20832;31
2023/07/08 04:02:29;;;;;;;9.77;6.90;;;16.50;99.90;;;;;;2585336;54;20795;31
2023/07/08 04:05:09;;;;;;;8.95;6.75;;;16.70;99.90;;;;;;2585399;54;20022;31
2023/07/08 04:07:46;;;;;;;8.80;6.70;;;16.90;99.90;;;;;;2585155;54;20743;31
2023/07/08 04:10:22;;;;;;;10.48;6.80;;;17.10;99.90;;;;;;2603935;47;22412;31
2023/07/08 04:12:58;;;;;;;11.48;7.20;;;17.30;99.90;;;;;;2584417;54;20814;31
2023/07/08 04:15:32;;;;;;;;;;;17.50;99.90;;;;;;2603552;47;20023;31
2023/07/08 04:18:09;;;;;;;;;;;17.60;99.90;;;;;;2585603;54;19976;31
2023/07/08 04:20:52;;;;;;;;;;;17.80;99.90;;;;;;2584549;54;20816;31
2023/07/08 04:23:28;;;;;;;;;;;18.00;99.90;;;;;;2604053;47;19934;31
2023/07/08 04:26:03;;;;;;;;;;;18.20;99.90;;;;;;2601741;47;20744;31
2023/07/08 04:28:36;;;;;;;;;;;18.30;99.90;;;;;;2604147;47;19935;31
2023/07/08 04:31:09;;;;;;;;;;;18.40;99.90;;;;;;2585105;54;20827;31
2023/07/08 04:33:42;;;;;;;;;;;18.60;99.90;;;;;;2603760;47;19938;31
2023/07/08 04:36:21;;;;;;;;;;;18.80;99.90;;;;;;2585349;54;19935;31
2023/07/08 04:38:57;;;;;;;;;;;18.90;99.90;;;;;;2585342;54;19935;31
2023/07/08 04:41:31;;;;;;;;;;;19.00;99.90;;;;;;2596185;47;20837;31
2023/07/08 04:44:04;;;;;;;;;;;19.10;99.90;;;;;;2601798;47;20753;31
2023/07/08 04:46:39;;;;;;;;;;;19.40;99.90;;;;;;2585391;54;19989;31
2023/07/08 04:49:13;;;;;;;;;;;19.60;99.90;;;;;;2584562;54;19942;31
2023/07/08 04:51:48;;;;;;;;;;;19.80;99.90;;;;;;2585459;54;21122;31
2023/07/08 04:54:22;;;;;;;;;;;19.90;99.90;;;;;;2603590;47;20501;31
2023/07/08 04:56:55;;;;;;;;;;;20.10;99.90;;;;;;2585507;54;19934;31
2023/07/08 04:59:34;;;;;;;;;;;20.30;99.90;;;;;;2603782;47;19934;31
2023/07/08 05:02:12;;;;;;;;;;;20.40;99.90;;;;;;2603573;47;20829;31
2023/07/08 05:04:45;;;;;;;;;;;20.60;99.90;;;;;;2585327;54;20757;31
2023/07/08 05:07:19;;;;;;;;;;;20.80;99.90;;;;;;2585479;54;20505;31
2023/07/08 05:09:53;;;;;;;;;;;20.90;99.90;;;;;;2604096;47;19934;31
2023/07/08 05:12:27;;;;;;;;;;;21.10;99.90;;;;;;2602598;47;20883;31
2023/07/08 05:15:03;;;;;;;;;;;21.30;99.90;;;;;;2585194;54;20757;31
2023/07/08 05:17:41;;;;;;;;;;;21.50;99.90;;;;;;2585450;54;19934;31
2023/07/08 05:20:18;;;;;;;;;;;21.70;99.90;;;;;;2584834;54;19946;31
2023/07/08 05:23:00;;;;;;;;;;;21.90;99.90;;;;;;2586103;54;20793;31
2023/07/08 05:25:36;;;;;;;;;;;22.10;99.90;;;;;;2585202;54;20141;31
2023/07/08 05:28:10;;;;;;;;;;;22.30;99.90;;;;;;2585322;54;20803;31
2023/07/08 05:30:44;;;;;;;;;;;22.60;99.90;;;;;;2603432;46;20757;31
2023/07/08 05:33:22;;;;;;;;;;;22.80;99.90;;;;;;2603850;46;20801;31
2023/07/08 05:35:54;;;;;;;;;;;23.00;99.90;;;;;;2604090;46;20016;31
2023/07/08 05:38:31;;;;;;;;;;;23.20;99.90;;;;;;2603701;46;20856;31
2023/07/08 05:41:06;;;;;;;;;;;23.30;99.90;;;;;;2702584;39;22182;31
2023/07/08 05:43:43;;;;;;;;;;;23.50;99.90;;;;;;2585972;54;20800;31
2023/07/08 05:46:19;;;;;;;;;;;23.70;99.90;;;;;;2585300;54;19935;31
2023/07/08 05:48:51;;;;;;;;;;;23.80;99.90;;;;;;2603472;46;20817;31
2023/07/08 05:51:25;;;;;;;;;;;24.10;99.90;;;;;;2603907;46;19974;31
2023/07/08 05:54:03;;;;;;;;;;;24.20;99.90;;;;;;2586002;54;19935;31
2023/07/08 05:56:37;;;;;;;;;;;24.40;99.90;;;;;;2585570;54;20836;31
2023/07/08 05:59:11;;;;;;;;;;;24.60;99.90;;;;;;2604493;46;19935;31
2023/07/08 06:01:44;;;;;;;;;;;24.80;99.90;;;;;;2585893;54;20731;31
2023/07/08 06:04:19;;;;;;;;;;;24.90;99.90;;;;;;2604491;46;20820;31
2023/07/08 06:06:53;;;;;;;;;;;25.10;99.90;;;;;;2604282;46;20700;31
2023/07/08 06:09:28;;;;;;;;;;;25.30;99.90;;;;;;2586035;54;21068;31
2023/07/08 06:12:01;;;;;;;;;;;25.50;99.90;;;;;;2604546;46;19942;31
2023/07/08 06:14:33;;;;;;;;;;;25.60;99.90;;;;;;2586073;54;20774;31
2023/07/08 06:17:09;;;;;;;;;;;25.90;99.90;;;;;;2585716;54;19957;31
2023/07/08 06:19:42;;;;;;;;;;;26.00;99.90;;;;;;2585520;54;20818;31
2023/07/08 06:22:17;;;;;;;;;;;26.20;99.90;;;;;;2604481;46;19942;31
2023/07/08 06:25:16;;;;;;;;;;;26.40;99.90;;;;;;2585501;54;20718;31
2023/07/08 06:27:48;;;;;;;;;;;26.60;99.90;;;;;;2604346;46;19935;31
2023/07/08 06:30:23;;;;;;;;;;;26.80;99.90;;;;;;2585434;54;20751;31
2023/07/08 06:32:55;;;;;;;;;;;27.00;99.90;;;;;;2604005;46;19961;31
2023/07/08 06:35:31;;;;;;;;;;;27.20;99.90;;;;;;2604252;46;19934;31
2023/07/08 06:38:05;;;;;;;;;;;27.40;99.90;;;;;;2585670;54;19946;31
2023/07/08 06:40:42;;;;;;;;;;;27.60;99.90;;;;;;2603974;46;20795;31
2023/07/08 06:43:15;;;;;;;;;;;27.70;99.90;;;;;;2604029;46;19935;31
2023/07/08 06:46:02;;;;;;;;;;;27.90;99.90;;;;;;2604081;46;20819;31
2023/07/08 06:48:37;;;;;;;;;;;28.00;99.90;;;;;;2585571;54;19935;31
2023/07/08 06:51:09;;;;;;;;;;;28.10;99.90;;;;;;2585303;54;20856;31
2023/07/08 06:53:42;;;;;;;;;;;28.30;99.90;;;;;;2585576;54;19957;31
2023/07/08 06:56:17;;;;;;;;;;;28.40;99.90;;;;;;2585191;54;19942;31
2023/07/08 06:58:51;;;;;;;;;;;28.50;99.90;;;;;;2585284;54;20001;31
2023/07/08 07:01:24;;;;;;;;;;;28.60;99.90;;;;;;2585270;54;20841;31
2023/07/08 07:03:59;;;;;;;;;;;28.70;99.90;;;;;;2585203;54;20671;31
2023/07/08 07:06:31;;;;;;;;;;;28.90;99.90;;;;;;2602895;46;19935;31
2023/07/08 07:09:06;;;;;;;;;;;29.00;99.90;;;;;;2585596;54;20688;31
2023/07/08 07:11:41;;;;;;;;;;;29.30;99.90;;;;;;2683411;39;21419;31
2023/07/08 07:16:45;;;;;;;;;;;29.70;99.90;;;;;;2585520;54;19934;31
2023/07/08 07:19:39;;;;;;;;;;;30.00;99.90;;;;;;2604133;46;19935;31
2023/07/08 07:22:11;;;;;;;;;;;30.10;97.10;;;;;;2585459;54;19939;31
2023/07/08 07:24:44;;;;;;;;;;;30.40;96.70;;;;;;2603659;46;19943;31
2023/07/08 07:27:21;;;;;;;;;;;30.50;95.90;;;;;;2585414;54;20507;31
2023/07/08 07:29:53;;;;;;;;;;;30.60;95.60;;;;;;2603774;46;19938;31
2023/07/08 07:32:29;;;;;;;;;;;30.80;92.30;;;;;;2584812;54;19934;31
2023/07/08 07:35:01;;;;;;;;;;;30.80;90.40;;;;;;2584870;54;20808;31
2023/07/08 07:37:37;;;;;;;;;;;30.80;88.80;;;;;;2603630;46;19935;31
2023/07/08 07:40:12;;;;;;;;;;;30.90;90.10;;;;;;2585332;54;19942;31
2023/07/08 07:42:47;;;;;;;;;;;31.00;86.70;;;;;;2585094;54;19961;31
2023/07/08 07:45:22;;;;;;;;;;;31.10;85.90;;;;;;2585510;54;19938;31
2023/07/08 07:47:55;;;;;;;;;;;31.30;84.70;;;;;;2585091;54;20768;31
2023/07/08 07:50:27;;;;;;;;;;;31.40;82.00;;;;;;2603774;46;19961;31
2023/07/08 07:53:01;;;;;;;;;;;31.60;81.30;;;;;;2603538;46;19961;31
2023/07/08 07:55:33;;;;;;;;;;;31.80;79.50;;;;;;2604189;46;20800;31
2023/07/08 07:58:11;;;;;;;;;;;32.00;79.00;;;;;;2585675;54;20807;31
2023/07/08 08:00:44;;;;;;;;;;;32.10;79.40;;;;;;2585808;54;20693;31
2023/07/08 08:03:18;;;;;;;;;;;32.20;75.30;;;;;;2585399;54;20706;31
2023/07/08 08:05:53;;;;;;;;;;;32.30;78.20;;;;;;2585469;54;19934;31
2023/07/08 08:08:29;;;;;;;;;;;32.60;77.90;;;;;;2585671;54;19941;31
2023/07/08 08:11:01;;;;;;;;;;;32.80;78.30;;;;;;2683997;39;22211;31
2023/07/08 08:13:35;;;;;;;;;;;33.00;74.00;;;;;;2585749;54;20075;31
2023/07/08 08:16:08;;;;;;;;;;;33.10;73.40;;;;;;2604096;47;20825;31
2023/07/08 08:18:41;;;;;;;;;;;33.10;70.70;;;;;;2585769;54;19935;31
2023/07/08 08:21:15;;;;;;;;;;;33.10;71.20;;;;;;2585948;54;19961;31
2023/07/08 08:23:47;;;;;;;;;;;33.20;70.80;;;;;;2585693;54;20830;31
2023/07/08 08:26:19;;;;;;;;;;;33.30;71.40;;;;;;2604429;47;20766;31
2023/07/08 08:28:56;;;;;;;;;;;33.50;70.50;;;;;;2585459;54;19939;31
2023/07/08 08:31:30;;;;;;;;;;;33.70;68.80;;;;;;2585678;54;20870;31
2023/07/08 08:34:04;;;;;;;;;;;33.50;67.00;;;;;;2585560;54;19934;31
2023/07/08 08:36:35;;;;;;;;;;;33.50;67.60;;;;;;2585744;54;20037;31
2023/07/08 08:39:06;;;;;;;;;;;33.40;67.10;;;;;;2702279;39;21306;31
2023/07/08 08:41:40;;;;;;;;;;;33.60;66.90;;;;;;2585721;54;20783;31
2023/07/08 08:44:15;;;;;;;;;;;33.50;65.20;;;;;;2585231;54;20817;31
2023/07/08 08:46:56;;;;;;;;;;;33.40;66.10;;;;;;2585676;54;20791;31
2023/07/08 08:49:29;;;;;;;;;;;33.50;65.20;;;;;;2604217;47;19934;31
2023/07/08 08:52:00;;;;;;;;;;;33.50;65.60;;;;;;2585788;54;19934;31
2023/07/08 08:54:31;;;;;;;;;;;33.50;67.10;;;;;;2604476;47;20682;31
2023/07/08 08:57:08;;;;;;;;;;;33.70;65.90;;;;;;2605101;46;19938;31
2023/07/08 08:59:45;;;;;;;;;;;33.90;67.00;;;;;;2586492;54;19961;31
2023/07/08 09:02:33;;;;;;;;;;;34.10;63.60;;;;;;2605082;46;19942;31
2023/07/08 09:07:39;;;;;;;;;;;34.20;65.10;;;;;;2604496;46;19961;31
2023/07/08 09:10:13;;;;;;;;;;;34.20;62.10;;;;;;2604667;46;19989;31
2023/07/08 09:12:45;;;;;;;;;;;34.20;62.30;;;;;;2585833;54;19935;31
2023/07/08 09:15:19;;;;;;;;;;;34.20;60.80;;;;;;2605001;46;19935;31
2023/07/08 09:17:56;;;;;;;;;;;34.10;59.50;;;;;;2586323;54;19935;31
2023/07/08 09:20:28;;;;;;;;;;;34.00;60.30;;;;;;2586598;54;20068;31
2023/07/08 09:23:01;;;;;;;;;;;34.10;61.40;;;;;;2586635;54;19957;31
2023/07/08 09:25:35;;;;;;;;;;;34.10;61.70;;;;;;2684771;39;22310;31
2023/07/08 09:28:09;;;;;;;;;;;34.10;61.00;;;;;;2586288;54;19942;31
2023/07/08 09:30:44;;;;;;;;;;;34.20;60.20;;;;;;2605198;46;22253;31
2023/07/08 09:33:16;;;;;;;;;;;34.30;60.20;;;;;;2604550;46;19935;31
2023/07/08 09:35:50;;;;;;;;;;;34.30;60.30;;;;;;2586139;54;19935;31
2023/07/08 09:38:24;;;;;;;;;;;34.30;60.40;;;;;;2586344;54;20819;31
2023/07/08 09:40:56;;;;;;;;;;;34.10;61.00;;;;;;2586161;54;19989;31
2023/07/08 09:43:30;;;;;;;;;;;34.20;61.90;;;;;;2586250;54;19935;31
2023/07/08 09:46:03;;;;;;;;;;;34.30;61.20;;;;;;2586355;54;20829;31
2023/07/08 09:48:37;;;;;;;;;;;34.30;61.40;;;;;;2586463;54;22315;31
2023/07/08 09:51:10;;;;;;;;;;;34.40;60.90;;;;;;2604882;46;20796;31
2023/07/08 09:53:43;;;;;;;;;;;34.60;60.80;;;;;;2604882;46;20788;31
2023/07/08 09:56:15;;;;;;;;;;;34.60;58.90;;;;;;2586351;54;20854;31
2023/07/08 09:58:49;;;;;;;;;;;34.50;59.20;;;;;;2585755;54;20660;31
2023/07/08 10:01:26;;;;;;;;;;;34.40;57.90;;;;;;2604784;46;20766;31
2023/07/08 10:04:01;;;;;;;;;;;34.30;58.10;;;;;;2586264;54;20015;31
2023/07/08 10:06:34;;;;;;;;;;;34.20;57.70;;;;;;2586000;54;19997;31
2023/07/08 10:09:06;;;;;;;;;;;34.20;59.90;;;;;;2604871;46;19946;31
2023/07/08 10:11:38;;;;;;;;;;;34.20;59.00;;;;;;2586367;54;20753;31
2023/07/08 10:14:10;;;;;;;;;;;34.30;59.70;;;;;;2586165;54;20858;31
2023/07/08 10:16:48;;;;;;;;;;;34.30;58.30;;;;;;2586312;54;19941;31
2023/07/08 10:19:21;;;;;;;;;;;34.20;58.20;;;;;;2586206;54;19935;31
2023/07/08 10:22:04;;;;;;;;;;;34.10;58.10;;;;;;2586430;54;22259;31
2023/07/08 10:24:40;;;;;;;;;;;34.30;58.10;;;;;;2604538;46;20131;31
2023/07/08 10:27:15;;;;;;;;;;;34.30;56.90;;;;;;2586217;54;20805;31
2023/07/08 10:29:48;;;;;;;;;;;34.30;57.20;;;;;;2586119;54;19965;31
2023/07/08 10:32:20;;;;;;;;;;;34.30;56.50;;;;;;2586132;54;19938;31
2023/07/08 10:34:55;;;;;;;;;;;34.20;56.70;;;;;;2586116;54;20843;31
2023/07/08 10:37:28;;;;;;;;;;;34.20;56.70;;;;;;2604710;46;19947;31
2023/07/08 10:40:02;;;;;;;;;;;34.20;55.90;;;;;;2585976;54;20819;31
2023/07/08 10:42:44;;;;;;;;;;;34.10;55.60;;;;;;2605075;46;22267;31
2023/07/08 10:45:18;;;;;;;;;;;34.00;56.00;;;;;;2585643;54;19943;31
2023/07/08 10:47:55;;;;;;;;;;;34.10;58.90;;;;;;2586237;54;20850;31
2023/07/08 10:50:27;;;;;;;;;;;34.20;57.40;;;;;;2585932;54;21078;31
2023/07/08 10:53:05;;;;;;;;;;;33.90;56.90;;;;;;2586028;54;20059;31
2023/07/08 10:55:40;;;;;;;;;;;34.00;58.20;;;;;;2591511;46;19938;31
2023/07/08 10:58:26;;;;;;;;;;;34.00;58.00;;;;;;2585748;54;19953;31
2023/07/08 11:00:57;;;;;;;;;;;;;;;;;;2600137;54;19953;31
2023/07/08 11:03:28;;;;;;;;;;;;;;;;;;2605712;46;19980;31
2023/07/08 11:08:32;;;;;;;;;;;34.00;58.20;;;;;;2587341;54;21433;31
2023/07/08 11:13:48;;;;;;;;;;;34.00;56.00;;;;;;2586066;54;19935;31
2023/07/08 11:16:23;;;;;;;;;;;33.90;56.50;;;;;;2586295;54;19934;31
2023/07/08 11:18:59;;;;;;;;;;;33.90;56.00;;;;;;2604480;46;20833;31
2023/07/08 11:21:32;;;;;;;;;;;33.70;55.90;;;;;;2585878;54;20867;31
2023/07/08 11:24:12;;;;;;;;;;;33.70;56.00;;;;;;2604636;46;20056;31
2023/07/08 11:26:44;;;;;;;;;;;33.60;57.30;;;;;;2586244;54;20712;31
2023/07/08 11:29:19;;;;;;;;;;;33.60;56.70;;;;;;2585912;54;19934;31
2023/07/08 11:31:51;;;;;;;;;;;33.40;57.10;;;;;;2585927;54;19935;31
2023/07/08 11:34:25;;;;;;;;;;;33.30;56.40;;;;;;2585670;54;19934;31
2023/07/08 11:36:58;;;;;;;;;;;33.10;57.10;;;;;;2603945;46;19934;31
2023/07/08 11:39:41;;;;;;;;;;;33.10;56.60;;;;;;2585717;54;20660;31
2023/07/08 11:42:16;;;;;;;;;;;33.00;57.60;;;;;;2604523;46;21792;31
2023/07/08 11:44:51;;;;;;;;;;;33.00;60.20;;;;;;2585916;54;20749;31
2023/07/08 11:47:27;;;;;;;;;;;33.20;60.90;;;;;;2585832;54;20792;31
2023/07/08 11:50:00;;;;;;;;;;;33.10;58.20;;;;;;2603932;46;19934;31
2023/07/08 11:52:32;;;;;;;;;;;33.10;58.40;;;;;;2585507;54;19934;31
2023/07/08 11:55:15;;;;;;;;;;;33.10;57.90;;;;;;2585989;54;19941;31
2023/07/08 11:57:46;;;;;;;;;;;32.50;58.70;;;;;;2586124;54;19961;31
2023/07/08 12:00:18;;;;;;;;;;;33.20;59.40;;;;;;2585599;54;19976;31
2023/07/08 12:02:51;;;;;;;;;;;33.20;56.60;;;;;;2603843;46;19939;31
2023/07/08 12:05:35;;;;;;;;;;;33.10;57.30;;;;;;2604319;46;19938;31
2023/07/08 12:08:06;;;;;;;;;;;33.10;57.50;;;;;;2586089;54;20020;31
2023/07/08 12:10:43;;;;;;;;;;;33.00;57.50;;;;;;2683690;39;21009;31
2023/07/08 12:13:16;;;;;;;;;;;33.00;58.20;;;;;;2604230;46;19942;31
2023/07/08 12:15:49;;;;;;;;;;;33.00;58.70;;;;;;2604260;46;20786;31
2023/07/08 12:18:22;;;;;;;;;;;33.00;59.10;;;;;;2585600;54;20884;31
2023/07/08 12:20:55;;;;;;;;;;;33.00;59.10;;;;;;2585698;54;21647;31
2023/07/08 12:23:30;;;;;;;;;;;33.10;59.40;;;;;;2585604;54;20005;31
2023/07/08 12:26:08;;;;;;;;;;;33.00;57.50;;;;;;2604448;47;20786;31
2023/07/08 12:28:46;;;;;;;;;;;33.00;57.80;;;;;;2603668;47;21283;31
2023/07/08 12:31:19;;;;;;;;;;;33.00;58.50;;;;;;2605056;47;20791;31
2023/07/08 12:33:56;;;;;;;;;;;31.70;62.10;;;;;;2586499;54;20037;31
2023/07/08 12:36:28;;;;;;;;;;;;;;;;;;2605262;46;21231;31
2023/07/08 12:39:02;;;;;;;;;;;33.10;61.20;;;;;;2586085;54;20748;31
2023/07/08 12:41:35;;;;;;;;;;;;;;;;;;2586497;54;19943;31
2023/07/08 12:44:18;;;;;;;;;;;33.10;56.40;;;;;;2585995;54;20822;31
2023/07/08 12:46:52;;;;;;;;;;;33.10;56.90;;;;;;2585949;54;19943;31
2023/07/08 12:49:29;;;;;;;;;;;33.00;55.70;;;;;;2604995;46;19941;31
2023/07/08 12:52:02;;;;;;;;;;;32.90;56.10;;;;;;2594628;46;20696;31
2023/07/08 12:54:35;;;;;;;;;;;32.70;62.50;;;;;;2693342;39;20958;31
2023/07/08 12:57:09;;;;;;;;;;;32.60;57.40;;;;;;2586254;54;20708;31
2023/07/08 12:59:45;;;;;;;;;;;32.70;58.30;;;;;;2586231;54;19946;31
2023/07/08 13:02:18;;;;;;;;;;;32.70;57.20;;;;;;2755122;31;20557;31
2023/07/08 13:04:52;;;;;;;;;;;32.80;58.40;;;;;;2586300;54;20775;31
2023/07/08 13:07:28;;;;;;;;;;;32.70;56.30;;;;;;2586731;54;20778;31
2023/07/08 13:10:01;;;;;;;;;;;32.60;56.20;;;;;;2604674;46;19934;31
2023/07/08 13:12:37;;;;;;;;;;;32.60;56.40;;;;;;2684134;39;20400;31
2023/07/08 13:15:16;;;;;;;;;;;32.50;56.30;;;;;;2684012;39;20547;31
2023/07/08 13:17:49;;;;;;;;;;;32.50;57.10;;;;;;2604944;46;21052;31
2023/07/08 13:20:22;;;;;;;;;;;32.50;58.10;;;;;;2586153;54;20921;31
2023/07/08 13:22:56;;;;;;;;;;;32.40;57.50;;;;;;2586586;54;22310;31
2023/07/08 13:25:31;;;;;;;;;;;32.40;57.30;;;;;;2585460;54;20057;31
2023/07/08 13:28:04;;;;;;;;;;;30.00;55.90;;;;;;2586441;54;20857;31
2023/07/08 13:30:41;;;;;;;;;;;32.30;57.40;;;;;;2605010;46;20814;31
2023/07/08 13:33:17;;;;;;;;;;;32.30;57.50;;;;;;2586289;54;20848;31
2023/07/08 13:35:50;;;;;;;;;;;32.30;57.70;;;;;;2586324;54;19941;31
2023/07/08 13:38:23;;;;;;;;;;;32.20;57.70;;;;;;2586002;54;22342;31
2023/07/08 13:40:57;;;;;;;;;;;32.10;57.80;;;;;;2585935;54;20708;31
2023/07/08 13:43:30;;;;;;;;;;;32.00;58.00;;;;;;2755340;31;20492;31
2023/07/08 13:46:07;;;;;;;;;;;32.00;58.40;;;;;;2585342;54;19949;31
2023/07/08 13:48:40;;;;;;;;;;;29.90;56.70;;;;;;2604827;46;21895;31
2023/07/08 13:51:14;;;;;;;;;;;31.80;57.40;;;;;;2684346;39;22312;31
2023/07/08 13:53:48;;;;;;;;;;;31.80;57.80;;;;;;2585759;54;20805;31
2023/07/08 13:56:23;;;;;;;;;;;31.70;57.10;;;;;;2604409;46;20790;31
2023/07/08 13:59:03;;;;;;;;;;;31.60;57.50;;;;;;2585592;54;20755;31
2023/07/08 14:01:41;;;;;;;;;;;32.40;57.10;;;;;;2585581;54;19992;31
2023/07/08 14:04:15;;;;;;;;;;;31.50;57.10;;;;;;2585712;54;20648;31
2023/07/08 14:06:50;;;;;;;;;;;31.40;56.90;;;;;;2585658;54;19938;31
2023/07/08 14:09:24;;;;;;;;;;;28.90;55.70;;;;;;2603976;46;20799;31
2023/07/08 14:11:57;;;;;;;;;;;31.50;56.70;;;;;;2585910;54;21770;31
2023/07/08 14:14:31;;;;;;;;;;;31.50;57.40;;;;;;2585916;54;19934;31
2023/07/08 14:17:03;;;;;;;;;;;;;;;;;;2590958;46;19957;31
2023/07/08 14:19:39;;;;;;;;;;;31.50;57.30;;;;;;2585632;54;20792;31
2023/07/08 14:22:19;;;;;;;;;;;31.60;57.70;;;;;;2585594;54;20643;31
2023/07/08 14:24:51;;;;;;;;;;;31.50;57.00;;;;;;2585742;54;21820;31
2023/07/08 14:27:23;;;;;;;;;;;31.50;57.80;;;;;;2603612;46;21947;31
2023/07/08 14:29:57;;;;;;;;;;;31.60;59.90;;;;;;2604006;46;19980;31
2023/07/08 14:32:32;;;;;;;;;;;31.50;59.60;;;;;;2604513;46;19961;31
2023/07/08 14:35:13;;;;;;;;;;;31.60;59.10;;;;;;2585362;54;20781;31
2023/07/08 14:37:46;;;;;;;;;;;31.50;58.10;;;;;;2585313;54;19934;31
2023/07/08 14:40:45;;;;;;;;;;;31.60;58.20;;;;;;2603378;46;20778;31
2023/07/08 14:43:19;;;;;;;;;;;31.50;57.70;;;;;;2585170;54;19935;31
2023/07/08 14:45:52;;;;;;;;;;;31.30;57.90;;;;;;2585327;54;20795;31
2023/07/08 14:48:26;;;;;;;;;;;31.40;57.80;;;;;;2585548;54;19935;31
2023/07/08 14:51:05;;;;;;;;;;;31.30;58.90;;;;;;2585218;54;19957;31
2023/07/08 14:53:38;;;;;;;;;;;31.30;58.70;;;;;;2585565;54;19934;31
2023/07/08 14:56:16;;;;;;;;;;;31.30;59.80;;;;;;2585478;54;19935;31